createdAt,value
2023-03-24T00:01:57.377Z,1.98
2023-03-24T00:04:25.063Z,2.00
2023-03-24T00:06:54.102Z,1.73
2023-03-24T00:09:20.602Z,1.88
2023-03-24T00:11:47.174Z,1.55
2023-03-24T00:14:13.643Z,1.67
2023-03-24T00:16:42.927Z,1.40
2023-03-24T00:19:11.108Z,1.88
2023-03-24T00:21:37.614Z,1.48
2023-03-24T00:24:05.389Z,1.33
2023-03-24T00:26:35.121Z,1.48
2023-03-24T00:29:04.801Z,1.30
2023-03-24T00:31:31.790Z,1.30
2023-03-24T00:34:02.872Z,1.48
2023-03-24T00:36:29.440Z,1.73
2023-03-24T00:38:59.425Z,1.20
2023-03-24T00:41:27.516Z,1.63
2023-03-24T00:44:05.933Z,1.30
2023-03-24T00:46:33.592Z,1.33
2023-03-24T00:49:03.782Z,1.50
2023-03-24T00:51:32.888Z,1.50
2023-03-24T00:54:02.410Z,1.50
2023-03-24T00:56:31.456Z,1.60
2023-03-24T00:58:58.162Z,1.38
2023-03-24T01:01:26.181Z,1.58
2023-03-24T01:03:53.305Z,1.70
2023-03-24T01:06:22.487Z,1.77
2023-03-24T01:08:53.706Z,1.30
2023-03-24T01:11:22.565Z,1.63
2023-03-24T01:13:50.550Z,1.65
2023-03-24T01:16:17.490Z,1.30
2023-03-24T01:18:44.399Z,1.35
2023-03-24T01:21:12.663Z,1.40
2023-03-24T01:23:42.256Z,1.40
2023-03-24T01:26:10.521Z,1.83
2023-03-24T01:28:41.075Z,1.40
2023-03-24T01:31:11.763Z,1.52
2023-03-24T01:33:38.930Z,1.33
2023-03-24T01:36:06.840Z,1.40
2023-03-24T01:38:34.402Z,1.40
2023-03-24T01:41:01.098Z,1.33
2023-03-24T01:43:33.461Z,1.15
2023-03-24T01:46:22.759Z,1.50
2023-03-24T01:49:01.552Z,1.55
2023-03-24T01:51:43.960Z,0.95
2023-03-24T01:56:44.094Z,1.42
2023-03-24T01:59:17.510Z,1.27
2023-03-24T02:01:44.850Z,1.10
2023-03-24T02:04:11.528Z,1.33
2023-03-24T02:06:44.140Z,1.38
2023-03-24T02:09:12.951Z,1.20
2023-03-24T02:11:41.245Z,1.55
2023-03-24T02:14:11.284Z,1.40
2023-03-24T02:16:51.189Z,1.15
2023-03-24T02:19:55.068Z,1.42
2023-03-24T02:22:36.566Z,1.30
2023-03-24T02:25:09.063Z,1.43
2023-03-24T02:28:06.584Z,1.30
2023-03-24T02:31:29.155Z,1.95
2023-03-24T02:34:21.263Z,1.20
2023-03-24T02:36:54.689Z,1.63
2023-03-24T02:39:56.439Z,1.10
2023-03-24T02:42:53.852Z,1.13
2023-03-24T02:45:35.714Z,1.25
2023-03-24T02:48:27.034Z,1.13
2023-03-24T02:51:08.301Z,1.02
2023-03-24T02:54:12.383Z,1.60
2023-03-24T02:56:42.902Z,1.60
2023-03-24T02:59:18.137Z,1.42
2023-03-24T03:01:54.339Z,1.70
2023-03-24T03:04:29.343Z,1.00
2023-03-24T03:07:01.858Z,1.15
2023-03-24T03:09:34.404Z,1.10
2023-03-24T03:12:05.484Z,1.13
2023-03-24T03:14:42.693Z,0.98
2023-03-24T03:17:17.792Z,1.30
2023-03-24T03:19:56.105Z,1.50
2023-03-24T03:22:25.791Z,1.17
2023-03-24T03:24:56.225Z,1.45
2023-03-24T03:27:39.004Z,1.27
2023-03-24T03:30:29.234Z,1.23
2023-03-24T03:33:00.503Z,1.25
2023-03-24T03:35:36.557Z,1.20
2023-03-24T03:38:24.589Z,1.13
2023-03-24T03:41:00.332Z,1.52
2023-03-24T03:43:28.044Z,1.40
2023-03-24T03:45:55.412Z,1.23
2023-03-24T03:48:22.621Z,1.45
2023-03-24T03:50:53.339Z,1.50
2023-03-24T03:53:40.414Z,1.40
2023-03-24T03:56:07.645Z,1.40
2023-03-24T03:58:37.238Z,1.58
2023-03-24T04:01:04.099Z,1.88
2023-03-24T04:03:52.926Z,1.45
2023-03-24T04:06:28.458Z,1.58
2023-03-24T04:09:24.231Z,1.83
2023-03-24T04:11:50.588Z,1.88
2023-03-24T04:14:42.095Z,1.83
2023-03-24T04:17:27.824Z,1.83
2023-03-24T04:20:12.620Z,1.95
2023-03-24T04:22:57.321Z,2.00
2023-03-24T04:25:35.134Z,2.25
2023-03-24T04:28:11.617Z,2.13
2023-03-24T04:30:46.501Z,2.30
2023-03-24T04:33:29.009Z,2.50
2023-03-24T04:36:06.573Z,2.97
2023-03-24T04:38:36.423Z,3.45
2023-03-24T04:41:05.453Z,2.25
2023-03-24T04:43:37.408Z,2.22
2023-03-24T04:46:07.139Z,2.25
2023-03-24T04:48:33.594Z,2.05
2023-03-24T04:51:01.761Z,2.72
2023-03-24T04:53:29.206Z,3.10
2023-03-24T04:56:11.115Z,3.00
2023-03-24T04:58:37.554Z,2.88
2023-03-24T05:01:06.406Z,2.67
2023-03-24T05:03:38.068Z,8.00
2023-03-24T05:06:07.713Z,4.75
2023-03-24T05:08:36.718Z,4.15
2023-03-24T05:11:03.188Z,5.22
2023-03-24T05:13:29.555Z,2.83
2023-03-24T05:15:56.379Z,2.63
2023-03-24T05:18:25.660Z,2.70
2023-03-24T05:20:53.648Z,3.42
2023-03-24T05:23:20.186Z,2.47
2023-03-24T05:25:47.658Z,2.85
2023-03-24T05:28:14.261Z,3.08
2023-03-24T05:30:40.925Z,3.08
2023-03-24T05:33:07.535Z,3.38
2023-03-24T05:35:34.002Z,2.85
2023-03-24T05:38:00.631Z,2.45
2023-03-24T05:40:29.593Z,3.20
2023-03-24T05:42:56.008Z,2.83
2023-03-24T05:45:22.686Z,3.25
2023-03-24T05:47:51.761Z,2.90
2023-03-24T05:50:18.261Z,2.75
2023-03-24T05:52:45.490Z,2.50
2023-03-24T05:55:12.066Z,3.00
2023-03-24T05:57:41.497Z,3.20
2023-03-24T06:00:10.919Z,2.70
2023-03-24T06:02:37.810Z,3.15
2023-03-24T06:05:04.861Z,4.40
2023-03-24T06:07:32.179Z,3.65
2023-03-24T06:10:02.884Z,3.85
2023-03-24T06:12:30.873Z,4.50
2023-03-24T06:14:57.933Z,4.00
2023-03-24T06:17:25.042Z,4.00
2023-03-24T06:19:51.830Z,4.75
2023-03-24T06:22:19.598Z,4.53
2023-03-24T06:24:50.123Z,4.30
2023-03-24T06:27:18.772Z,4.20
2023-03-24T06:29:45.172Z,5.00
2023-03-24T06:32:11.879Z,4.82
2023-03-24T06:34:40.883Z,5.00
2023-03-24T06:37:07.292Z,5.15
2023-03-24T06:39:33.767Z,4.97
2023-03-24T06:42:02.772Z,4.90
2023-03-24T06:44:29.205Z,4.80
2023-03-24T06:46:55.702Z,4.65
2023-03-24T06:49:22.269Z,4.43
2023-03-24T06:51:48.700Z,4.55
2023-03-24T06:54:17.626Z,3.90
2023-03-24T06:56:46.544Z,4.70
2023-03-24T06:59:13.086Z,4.25
2023-03-24T07:01:42.870Z,4.38
2023-03-24T07:04:09.285Z,4.20
2023-03-24T07:06:40.567Z,3.72
2023-03-24T07:09:13.895Z,3.83
2023-03-24T07:11:41.257Z,3.83
2023-03-24T07:14:09.832Z,3.42
2023-03-24T07:16:36.317Z,4.32
2023-03-24T07:19:02.863Z,3.63
2023-03-24T07:21:31.416Z,3.58
2023-03-24T07:23:57.808Z,4.00
2023-03-24T07:26:29.218Z,3.45
2023-03-24T07:28:58.160Z,2.88
2023-03-24T07:31:27.063Z,3.22
2023-03-24T07:34:01.064Z,3.55
2023-03-24T07:36:30.858Z,3.92
2023-03-24T07:38:57.401Z,3.28
2023-03-24T07:41:27.659Z,3.20
2023-03-24T07:43:54.091Z,3.50
2023-03-24T07:46:20.576Z,3.50
2023-03-24T07:48:47.224Z,2.75
2023-03-24T07:51:19.941Z,3.65
2023-03-24T07:53:51.511Z,3.25
2023-03-24T07:56:20.864Z,3.50
2023-03-24T07:58:47.431Z,3.17
2023-03-24T08:01:14.084Z,2.72
2023-03-24T08:03:42.113Z,3.13
2023-03-24T08:06:09.339Z,3.08
2023-03-24T08:08:38.455Z,2.97
2023-03-24T08:11:05.111Z,2.47
2023-03-24T08:13:31.968Z,2.25
2023-03-24T08:16:00.817Z,2.33
2023-03-24T08:18:28.026Z,2.17
2023-03-24T08:20:58.572Z,2.40
2023-03-24T08:23:25.631Z,2.00
2023-03-24T08:25:52.157Z,1.50
2023-03-24T08:28:18.846Z,2.22
2023-03-24T08:30:45.550Z,1.63
2023-03-24T08:33:16.317Z,1.60
2023-03-24T08:35:48.168Z,2.28
2023-03-24T08:38:18.281Z,1.77
2023-03-24T08:40:45.587Z,1.88
2023-03-24T08:43:15.923Z,1.92
2023-03-24T08:45:42.453Z,1.63
2023-03-24T08:48:10.363Z,1.88
2023-03-24T08:50:42.292Z,1.98
2023-03-24T08:53:12.812Z,1.95
2023-03-24T08:55:41.857Z,1.65
2023-03-24T08:58:21.975Z,1.98
2023-03-24T09:00:49.370Z,1.63
2023-03-24T09:03:22.647Z,1.40
2023-03-24T09:05:50.292Z,1.60
2023-03-24T09:08:18.447Z,1.48
2023-03-24T09:10:48.153Z,1.30
2023-03-24T09:13:15.433Z,1.85
2023-03-24T09:15:53.995Z,2.30
2023-03-24T09:18:21.847Z,1.80
2023-03-24T09:20:49.240Z,1.73
2023-03-24T09:23:19.595Z,1.67
2023-03-24T09:25:46.238Z,1.70
2023-03-24T09:28:17.409Z,1.88
2023-03-24T09:30:44.205Z,1.88
2023-03-24T09:33:10.819Z,1.65
2023-03-24T09:35:37.308Z,1.73
2023-03-24T09:38:06.338Z,1.48
2023-03-24T09:40:39.470Z,1.50
2023-03-24T09:43:14.285Z,1.48
2023-03-24T09:45:50.951Z,1.58
2023-03-24T09:48:39.490Z,1.60
2023-03-24T09:51:21.583Z,1.83
2023-03-24T09:53:55.006Z,1.67
2023-03-24T09:56:23.344Z,1.50
2023-03-24T09:59:04.933Z,1.60
2023-03-24T10:01:31.601Z,1.80
2023-03-24T10:03:59.752Z,1.90
2023-03-24T10:06:35.931Z,2.10
2023-03-24T10:09:09.784Z,2.00
2023-03-24T10:11:46.534Z,1.80
2023-03-24T10:14:21.813Z,1.55
2023-03-24T10:16:58.118Z,1.58
2023-03-24T10:19:39.048Z,2.00
2023-03-24T10:22:32.589Z,1.40
2023-03-24T10:25:19.252Z,1.63
2023-03-24T10:27:59.972Z,1.60
2023-03-24T10:30:36.993Z,1.63
2023-03-24T10:33:06.262Z,1.70
2023-03-24T10:36:02.011Z,1.63
2023-03-24T10:38:30.942Z,1.83
2023-03-24T10:40:57.415Z,1.73
2023-03-24T10:43:27.285Z,2.30
2023-03-24T10:45:56.469Z,1.77
2023-03-24T10:48:44.870Z,2.10
2023-03-24T10:51:23.353Z,2.15
2023-03-24T10:54:15.468Z,2.20
2023-03-24T10:56:49.242Z,2.22
2023-03-24T10:59:20.362Z,2.65
2023-03-24T11:01:49.856Z,2.33
2023-03-24T11:04:19.990Z,2.33
2023-03-24T11:07:05.139Z,2.13
2023-03-24T11:09:40.670Z,1.95
2023-03-24T11:12:25.012Z,1.90
2023-03-24T11:14:53.278Z,2.30
2023-03-24T11:17:22.064Z,1.77
2023-03-24T11:20:00.413Z,1.63
2023-03-24T11:22:29.424Z,1.30
2023-03-24T11:24:56.976Z,1.23
2023-03-24T11:27:25.860Z,0.90
2023-03-24T11:29:56.860Z,1.13
2023-03-24T11:32:28.108Z,0.90
2023-03-24T11:35:17.426Z,0.70
2023-03-24T11:37:47.043Z,0.90
2023-03-24T11:40:16.715Z,1.05
2023-03-24T11:42:46.197Z,0.80
2023-03-24T11:45:23.823Z,0.82
2023-03-24T11:47:52.691Z,0.50
2023-03-24T11:50:24.411Z,0.57
2023-03-24T11:52:53.551Z,0.60
2023-03-24T11:55:51.001Z,0.60
2023-03-24T11:58:35.514Z,0.60
2023-03-24T12:01:32.300Z,0.57
2023-03-24T12:04:22.691Z,0.60
2023-03-24T12:07:15.481Z,0.60
2023-03-24T12:10:11.082Z,0.60
2023-03-24T12:13:01.252Z,0.68
2023-03-24T12:15:37.460Z,0.90
2023-03-24T12:18:34.601Z,0.50
2023-03-24T12:21:34.960Z,0.57
2023-03-24T12:24:06.025Z,0.75
2023-03-24T12:26:34.651Z,0.73
2023-03-24T12:29:43.278Z,0.60
2023-03-24T12:32:37.457Z,0.50
2023-03-24T12:35:28.672Z,0.60
2023-03-24T12:38:34.145Z,0.85
2023-03-24T12:41:13.744Z,0.70
2023-03-24T12:44:01.889Z,1.40
2023-03-24T12:47:03.730Z,1.10
2023-03-24T12:49:46.502Z,1.02
2023-03-24T12:52:37.190Z,1.08
2023-03-24T12:55:25.333Z,1.30
2023-03-24T12:58:00.558Z,0.85
2023-03-24T13:00:34.281Z,1.45
2023-03-24T13:03:06.794Z,0.90
2023-03-24T13:05:39.214Z,0.90
2023-03-24T13:08:16.465Z,0.93
2023-03-24T13:10:43.738Z,1.05
2023-03-24T13:13:16.276Z,0.95
2023-03-24T13:15:59.670Z,0.77
2023-03-24T13:18:41.341Z,1.35
2023-03-24T13:21:22.230Z,1.30
2023-03-24T13:24:03.699Z,1.05
2023-03-24T13:27:02.758Z,1.00
2023-03-24T13:29:48.365Z,1.02
2023-03-24T13:32:24.264Z,1.17
2023-03-24T13:35:15.675Z,1.02
2023-03-24T13:37:52.904Z,0.70
2023-03-24T13:40:27.946Z,0.63
2023-03-24T13:42:58.824Z,1.08
2023-03-24T13:45:32.540Z,0.80
2023-03-24T13:47:59.013Z,0.80
2023-03-24T13:50:28.125Z,0.80
2023-03-24T13:53:05.939Z,0.80
2023-03-24T13:55:38.169Z,1.13
2023-03-24T13:58:14.729Z,0.88
2023-03-24T14:01:09.170Z,0.73
2023-03-24T14:03:40.534Z,0.70
2023-03-24T14:06:11.629Z,0.98
2023-03-24T14:08:58.991Z,1.30
2023-03-24T14:11:31.843Z,1.08
2023-03-24T14:14:16.356Z,1.23
2023-03-24T14:17:11.308Z,0.82
2023-03-24T14:19:43.331Z,1.08
2023-03-24T14:24:46.126Z,1.10
2023-03-24T14:27:31.689Z,0.98
2023-03-24T14:30:06.388Z,0.90
2023-03-24T14:32:39.638Z,1.00
2023-03-24T14:35:38.950Z,0.90
2023-03-24T14:38:22.178Z,1.40
2023-03-24T14:40:52.178Z,1.55
2023-03-24T14:43:22.671Z,1.02
2023-03-24T14:46:12.689Z,1.15
2023-03-24T14:48:58.280Z,0.93
2023-03-24T14:51:43.368Z,1.52
2023-03-24T14:54:16.814Z,1.00
2023-03-24T14:56:47.158Z,1.08
2023-03-24T14:59:31.271Z,0.98
2023-03-24T15:02:18.740Z,0.90
2023-03-24T15:05:23.512Z,1.23
2023-03-24T15:08:11.284Z,0.77
2023-03-24T15:11:02.017Z,0.93
2023-03-24T15:13:34.424Z,1.23
2023-03-24T15:16:04.537Z,0.95
2023-03-24T15:18:31.040Z,1.08
2023-03-24T15:20:57.700Z,1.08
2023-03-24T15:23:31.302Z,1.00
2023-03-24T15:25:58.030Z,0.98
2023-03-24T15:28:29.309Z,1.05
2023-03-24T15:30:59.278Z,1.23
2023-03-24T15:33:26.220Z,0.75
2023-03-24T15:35:58.492Z,1.17
2023-03-24T15:38:32.926Z,0.63
2023-03-24T15:41:12.763Z,0.82
2023-03-24T15:43:49.697Z,0.75
2023-03-24T15:46:29.458Z,1.02
2023-03-24T15:48:58.790Z,0.90
2023-03-24T15:52:25.413Z,1.13
2023-03-24T15:55:00.461Z,0.98
2023-03-24T15:57:40.852Z,1.10
2023-03-24T16:00:17.013Z,1.20
2023-03-24T16:03:00.752Z,0.93
2023-03-24T16:05:32.295Z,0.70
2023-03-24T16:08:00.405Z,1.20
2023-03-24T16:10:39.833Z,1.00
2023-03-24T16:13:16.865Z,1.10
2023-03-24T16:16:15.679Z,1.00
2023-03-24T16:18:49.619Z,1.05
2023-03-24T16:21:19.632Z,1.85
2023-03-24T16:23:47.458Z,1.20
2023-03-24T16:26:15.340Z,0.95
2023-03-24T16:28:45.905Z,0.70
2023-03-24T16:31:21.914Z,1.10
2023-03-24T16:33:49.103Z,1.20
2023-03-24T16:36:17.170Z,1.50
2023-03-24T16:38:46.721Z,1.48
2023-03-24T16:41:13.258Z,1.60
2023-03-24T16:43:41.820Z,1.20
2023-03-24T16:46:29.778Z,1.30
2023-03-24T16:48:56.371Z,1.50
2023-03-24T16:51:29.659Z,2.20
2023-03-24T16:53:56.168Z,1.90
2023-03-24T16:56:26.517Z,1.20
2023-03-24T16:58:54.438Z,0.88
2023-03-24T17:01:33.453Z,1.15
2023-03-24T17:04:19.017Z,1.08
2023-03-24T17:06:50.841Z,1.30
2023-03-24T17:09:17.371Z,1.00
2023-03-24T17:11:48.120Z,0.90
2023-03-24T17:14:14.808Z,0.93
2023-03-24T17:16:46.124Z,0.82
2023-03-24T17:19:14.648Z,0.53
2023-03-24T17:21:59.139Z,0.60
2023-03-24T17:24:25.651Z,0.77
2023-03-24T17:26:52.155Z,0.65
2023-03-24T17:29:18.630Z,1.58
2023-03-24T17:31:45.058Z,0.93
2023-03-24T17:34:21.567Z,0.75
2023-03-24T17:36:51.807Z,0.82
2023-03-24T17:39:19.886Z,0.80
2023-03-24T17:41:46.284Z,0.90
2023-03-24T17:44:12.706Z,0.52
2023-03-24T17:46:39.270Z,1.25
2023-03-24T17:49:06.353Z,0.95
2023-03-24T17:51:33.180Z,2.63
2023-03-24T17:53:59.839Z,0.90
2023-03-24T17:56:26.413Z,1.42
2023-03-24T17:58:54.815Z,0.80
2023-03-24T18:01:21.531Z,0.93
2023-03-24T18:03:49.549Z,0.80
2023-03-24T18:06:18.928Z,0.70
2023-03-24T18:08:50.772Z,1.00
2023-03-24T18:11:19.686Z,0.85
2023-03-24T18:13:46.193Z,1.13
2023-03-24T18:16:21.473Z,1.15
2023-03-24T18:18:49.769Z,1.73
2023-03-24T18:21:16.796Z,1.55
2023-03-24T18:23:43.278Z,2.35
2023-03-24T18:26:10.301Z,2.42
2023-03-24T18:28:38.676Z,2.38
2023-03-24T18:31:20.617Z,1.20
2023-03-24T18:33:48.383Z,1.20
2023-03-24T18:36:16.614Z,1.30
2023-03-24T18:38:43.606Z,0.93
2023-03-24T18:41:12.772Z,1.67
2023-03-24T18:43:40.971Z,2.08
2023-03-24T18:46:09.854Z,1.40
2023-03-24T18:48:41.817Z,1.40
2023-03-24T18:51:09.193Z,1.92
2023-03-24T18:53:35.833Z,1.73
2023-03-24T18:56:04.174Z,1.00
2023-03-24T18:58:30.673Z,1.65
2023-03-24T19:00:58.627Z,1.25
2023-03-24T19:03:27.299Z,1.20
2023-03-24T19:05:53.888Z,1.65
2023-03-24T19:08:21.931Z,2.55
2023-03-24T19:10:48.980Z,1.73
2023-03-24T19:13:16.902Z,1.60
2023-03-24T19:15:55.075Z,1.00
2023-03-24T19:18:23.190Z,0.90
2023-03-24T19:20:52.711Z,1.20
2023-03-24T19:23:19.124Z,1.38
2023-03-24T19:25:46.261Z,1.00
2023-03-24T19:28:14.610Z,0.93
2023-03-24T19:30:41.181Z,0.85
2023-03-24T19:33:08.652Z,0.80
2023-03-24T19:35:35.190Z,1.17
2023-03-24T19:38:01.944Z,1.00
2023-03-24T19:40:28.804Z,1.00
2023-03-24T19:42:55.593Z,0.98
2023-03-24T19:45:22.038Z,1.17
2023-03-24T19:47:48.811Z,0.73
2023-03-24T19:50:17.474Z,0.88
2023-03-24T19:52:45.912Z,0.98
2023-03-24T19:55:13.502Z,0.88
2023-03-24T19:57:40.548Z,0.93
2023-03-24T20:00:10.192Z,1.38
2023-03-24T20:02:37.693Z,1.98
2023-03-24T20:05:04.640Z,1.20
2023-03-24T20:07:33.665Z,1.42
2023-03-24T20:10:00.220Z,1.70
2023-03-24T20:12:27.787Z,1.90
2023-03-24T20:14:54.882Z,1.30
2023-03-24T20:17:23.155Z,1.67
2023-03-24T20:19:49.658Z,1.60
2023-03-24T20:22:16.439Z,1.50
2023-03-24T20:24:44.312Z,1.58
2023-03-24T20:27:11.037Z,1.70
2023-03-24T20:29:39.416Z,1.58
2023-03-24T20:32:06.561Z,1.85
2023-03-24T20:34:33.339Z,1.80
2023-03-24T20:36:59.934Z,1.25
2023-03-24T20:39:29.232Z,1.58
2023-03-24T20:41:57.999Z,1.30
2023-03-24T20:44:24.576Z,1.23
2023-03-24T20:46:52.395Z,0.93
2023-03-24T20:49:19.140Z,0.98
2023-03-24T20:51:46.065Z,1.23
2023-03-24T20:54:12.832Z,1.67
2023-03-24T20:56:39.306Z,2.70
2023-03-24T20:59:07.016Z,1.38
2023-03-24T21:01:37.788Z,1.88
2023-03-24T21:04:09.004Z,1.52
2023-03-24T21:06:38.172Z,1.65
2023-03-24T21:09:05.565Z,1.20
2023-03-24T21:11:32.667Z,1.50
2023-03-24T21:13:59.919Z,1.50
2023-03-24T21:16:29.311Z,1.15
2023-03-24T21:18:58.897Z,1.25
2023-03-24T21:21:28.099Z,1.27
2023-03-24T21:24:00.342Z,0.90
2023-03-24T21:26:26.867Z,1.10
2023-03-24T21:28:53.344Z,1.42
2023-03-24T21:31:23.906Z,1.48
2023-03-24T21:33:51.174Z,1.70
2023-03-24T21:36:17.973Z,1.02
2023-03-24T21:38:45.079Z,1.45
2023-03-24T21:41:14.143Z,1.55
2023-03-24T21:43:41.000Z,0.80
2023-03-24T21:46:14.783Z,0.95
2023-03-24T21:48:51.453Z,1.00
2023-03-24T21:51:23.987Z,0.88
2023-03-24T21:53:51.715Z,0.95
2023-03-24T21:56:20.247Z,0.75
2023-03-24T21:58:47.032Z,0.77
2023-03-24T22:01:14.796Z,0.90
2023-03-24T22:03:41.244Z,0.95
2023-03-24T22:06:10.794Z,1.77
2023-03-24T22:08:39.017Z,1.38
2023-03-24T22:11:06.167Z,1.10
2023-03-24T22:13:35.034Z,1.08
2023-03-24T22:16:03.869Z,1.42
2023-03-24T22:18:32.677Z,1.20
2023-03-24T22:21:03.057Z,1.73
2023-03-24T22:23:36.028Z,1.08
2023-03-24T22:26:09.007Z,1.30
2023-03-24T22:28:36.984Z,1.25
2023-03-24T22:31:09.204Z,1.58
2023-03-24T22:33:36.137Z,1.30
2023-03-24T22:36:03.759Z,1.90
2023-03-24T22:38:34.246Z,1.98
2023-03-24T22:41:05.010Z,1.70
2023-03-24T22:43:35.546Z,1.50
2023-03-24T22:46:02.384Z,1.67
2023-03-24T22:48:28.861Z,1.48
2023-03-24T22:50:57.481Z,1.52
2023-03-24T22:53:23.908Z,1.75
2023-03-24T22:55:50.709Z,1.83
2023-03-24T22:58:17.615Z,1.80
2023-03-24T23:00:48.362Z,1.50
2023-03-24T23:03:15.532Z,1.60
2023-03-24T23:05:44.177Z,1.88
2023-03-24T23:08:11.761Z,1.50
2023-03-24T23:10:39.178Z,1.42
2023-03-24T23:13:05.811Z,1.90
2023-03-24T23:15:32.582Z,1.30
2023-03-24T23:18:01.919Z,1.10
2023-03-24T23:20:29.296Z,1.20
2023-03-24T23:22:57.021Z,1.10
2023-03-24T23:25:23.886Z,1.10
2023-03-24T23:27:50.438Z,0.93
2023-03-24T23:30:16.861Z,0.77
2023-03-24T23:32:46.956Z,0.80
2023-03-24T23:35:14.373Z,0.88
2023-03-24T23:37:40.903Z,1.00
2023-03-24T23:40:12.970Z,0.85
2023-03-24T23:42:48.294Z,1.00
2023-03-24T23:45:20.143Z,1.00
2023-03-24T23:47:52.807Z,0.70
2023-03-24T23:50:20.526Z,1.25
2023-03-24T23:52:47.411Z,0.80
2023-03-24T23:55:15.540Z,0.60
2023-03-24T23:57:42.728Z,0.50
